sensor_id;sensor_type;location;lat;lon;timestamp;pressure;altitude;pressure_sealevel;temperature;humidity
62791;BME280;48830;53.426;10.300;2022-08-26T00:02:24;101517.44;;;22.88;91.10
62791;BME280;48830;53.426;10.300;2022-08-26T00:04:49;101514.78;;;22.89;90.97
62791;BME280;48830;53.426;10.300;2022-08-26T00:07:15;101513.28;;;22.76;91.48
62791;BME280;48830;53.426;10.300;2022-08-26T00:09:40;101514.28;;;22.70;92.73
62791;BME280;48830;53.426;10.300;2022-08-26T00:12:06;101517.06;;;22.66;92.68
62791;BME280;48830;53.426;10.300;2022-08-26T00:14:32;101512.72;;;22.63;93.04
62791;BME280;48830;53.426;10.300;2022-08-26T00:16:58;101514.44;;;22.64;93.10
62791;BME280;48830;53.426;10.300;2022-08-26T00:19:42;101511.06;;;22.59;93.38
62791;BME280;48830;53.426;10.300;2022-08-26T00:22:08;101509.31;;;22.60;92.94
62791;BME280;48830;53.426;10.300;2022-08-26T00:24:33;101518.06;;;22.60;92.79
62791;BME280;48830;53.426;10.300;2022-08-26T00:26:59;101516.41;;;22.56;93.72
62791;BME280;48830;53.426;10.300;2022-08-26T00:29:24;101514.63;;;22.57;93.00
62791;BME280;48830;53.426;10.300;2022-08-26T00:31:50;101511.16;;;22.54;93.09
62791;BME280;48830;53.426;10.300;2022-08-26T00:34:16;101513.91;;;22.50;93.78
62791;BME280;48830;53.426;10.300;2022-08-26T00:36:42;101512.16;;;22.49;93.63
62791;BME280;48830;53.426;10.300;2022-08-26T00:39:08;101507.81;;;22.49;93.35
62791;BME280;48830;53.426;10.300;2022-08-26T00:41:37;101513.00;;;22.51;93.41
62791;BME280;48830;53.426;10.300;2022-08-26T00:44:04;101504.31;;;22.49;93.68
62791;BME280;48830;53.426;10.300;2022-08-26T00:46:33;101502.59;;;22.48;93.50
62791;BME280;48830;53.426;10.300;2022-08-26T00:49:10;101503.56;;;22.44;93.97
62791;BME280;48830;53.426;10.300;2022-08-26T00:51:50;101504.44;;;22.43;93.82
62791;BME280;48830;53.426;10.300;2022-08-26T00:54:18;101507.13;;;22.41;93.60
62791;BME280;48830;53.426;10.300;2022-08-26T00:56:59;101503.59;;;22.42;93.83
62791;BME280;48830;53.426;10.300;2022-08-26T00:59:27;101507.97;;;22.42;94.08
62791;BME280;48830;53.426;10.300;2022-08-26T01:01:55;101507.22;;;22.37;93.97
62791;BME280;48830;53.426;10.300;2022-08-26T01:04:21;101513.31;;;22.37;94.47
62791;BME280;48830;53.426;10.300;2022-08-26T01:06:50;101495.91;;;22.35;94.63
62791;BME280;48830;53.426;10.300;2022-08-26T01:09:17;101509.97;;;22.31;95.32
62791;BME280;48830;53.426;10.300;2022-08-26T01:11:44;101509.00;;;22.35;94.80
62791;BME280;48830;53.426;10.300;2022-08-26T01:14:10;101502.88;;;22.36;94.04
62791;BME280;48830;53.426;10.300;2022-08-26T01:16:36;101507.31;;;22.34;94.39
62791;BME280;48830;53.426;10.300;2022-08-26T01:19:11;101505.59;;;22.31;94.60
62791;BME280;48830;53.426;10.300;2022-08-26T01:21:46;101503.00;;;22.30;94.02
62791;BME280;48830;53.426;10.300;2022-08-26T01:24:14;101504.78;;;22.27;94.78
62791;BME280;48830;53.426;10.300;2022-08-26T01:26:41;101503.16;;;22.23;95.56
62791;BME280;48830;53.426;10.300;2022-08-26T01:29:10;101502.28;;;22.23;95.45
62791;BME280;48830;53.426;10.300;2022-08-26T01:31:51;101502.34;;;22.20;95.70
62791;BME280;48830;53.426;10.300;2022-08-26T01:36:52;101496.25;;;22.19;95.97
62791;BME280;48830;53.426;10.300;2022-08-26T01:39:19;101504.97;;;22.20;95.49
62791;BME280;48830;53.426;10.300;2022-08-26T01:41:45;101501.53;;;22.18;95.92
62791;BME280;48830;53.426;10.300;2022-08-26T01:44:19;101509.41;;;22.16;95.98
62791;BME280;48830;53.426;10.300;2022-08-26T01:46:47;101505.06;;;22.15;95.49
62791;BME280;48830;53.426;10.300;2022-08-26T01:49:14;101499.91;;;22.09;96.48
62791;BME280;48830;53.426;10.300;2022-08-26T01:51:41;101505.16;;;22.09;96.06
62791;BME280;48830;53.426;10.300;2022-08-26T01:54:10;101501.78;;;22.04;96.79
62791;BME280;48830;53.426;10.300;2022-08-26T01:56:36;101504.53;;;21.98;97.52
62791;BME280;48830;53.426;10.300;2022-08-26T01:59:06;101501.00;;;21.99;97.16
62791;BME280;48830;53.426;10.300;2022-08-26T02:01:33;101495.72;;;22.02;96.63
62791;BME280;48830;53.426;10.300;2022-08-26T02:06:46;101497.66;;;21.92;97.88
62791;BME280;48830;53.426;10.300;2022-08-26T02:09:13;101496.81;;;21.92;97.71
62791;BME280;48830;53.426;10.300;2022-08-26T02:11:38;101496.81;;;21.92;97.58
62791;BME280;48830;53.426;10.300;2022-08-26T02:14:08;101490.72;;;21.90;98.01
62791;BME280;48830;53.426;10.300;2022-08-26T02:16:39;101499.50;;;21.87;98.40
62791;BME280;48830;53.426;10.300;2022-08-26T02:19:09;101499.56;;;21.84;98.65
62791;BME280;48830;53.426;10.300;2022-08-26T02:21:37;101494.31;;;21.84;98.50
62791;BME280;48830;53.426;10.300;2022-08-26T02:24:14;101496.13;;;21.82;98.54
62791;BME280;48830;53.426;10.300;2022-08-26T02:26:40;101497.91;;;21.80;98.36
62791;BME280;48830;53.426;10.300;2022-08-26T02:29:24;101495.25;;;21.82;98.35
62791;BME280;48830;53.426;10.300;2022-08-26T02:31:51;101498.78;;;21.81;98.21
62791;BME280;48830;53.426;10.300;2022-08-26T02:34:24;101497.16;;;21.73;99.07
62791;BME280;48830;53.426;10.300;2022-08-26T02:36:50;101482.34;;;21.72;99.07
62791;BME280;48830;53.426;10.300;2022-08-26T02:39:16;101492.84;;;21.71;98.92
62791;BME280;48830;53.426;10.300;2022-08-26T02:41:43;101488.56;;;21.67;99.47
62791;BME280;48830;53.426;10.300;2022-08-26T02:44:09;101482.50;;;21.65;99.13
62791;BME280;48830;53.426;10.300;2022-08-26T02:46:35;101486.03;;;21.62;99.97
62791;BME280;48830;53.426;10.300;2022-08-26T02:49:02;101480.84;;;21.61;100.00
62791;BME280;48830;53.426;10.300;2022-08-26T02:51:28;101482.69;;;21.56;100.00
62791;BME280;48830;53.426;10.300;2022-08-26T02:53:53;101480.06;;;21.56;100.00
62791;BME280;48830;53.426;10.300;2022-08-26T02:56:19;101472.28;;;21.53;100.00
62791;BME280;48830;53.426;10.300;2022-08-26T02:58:44;101479.25;;;21.54;100.00
62791;BME280;48830;53.426;10.300;2022-08-26T03:01:25;101473.22;;;21.48;100.00
62791;BME280;48830;53.426;10.300;2022-08-26T03:03:51;101470.66;;;21.45;100.00
62791;BME280;48830;53.426;10.300;2022-08-26T03:06:17;101474.22;;;21.43;100.00
62791;BME280;48830;53.426;10.300;2022-08-26T03:08:43;101463.78;;;21.40;100.00
62791;BME280;48830;53.426;10.300;2022-08-26T03:11:09;101463.84;;;21.38;100.00
62791;BME280;48830;53.426;10.300;2022-08-26T03:13:36;101456.88;;;21.36;100.00
62791;BME280;48830;53.426;10.300;2022-08-26T03:16:02;101468.25;;;21.35;100.00
62791;BME280;48830;53.426;10.300;2022-08-26T03:18:28;101461.28;;;21.34;100.00
62791;BME280;48830;53.426;10.300;2022-08-26T03:20:53;101460.47;;;21.32;100.00
62791;BME280;48830;53.426;10.300;2022-08-26T03:23:19;101453.50;;;21.29;100.00
62791;BME280;48830;53.426;10.300;2022-08-26T03:25:51;101461.34;;;21.29;100.00
62791;BME280;48830;53.426;10.300;2022-08-26T03:28:17;101463.16;;;21.26;100.00
62791;BME280;48830;53.426;10.300;2022-08-26T03:30:44;101459.69;;;21.23;100.00
62791;BME280;48830;53.426;10.300;2022-08-26T03:33:11;101459.69;;;21.23;100.00
62791;BME280;48830;53.426;10.300;2022-08-26T03:35:38;101454.50;;;21.22;100.00
62791;BME280;48830;53.426;10.300;2022-08-26T03:38:05;101453.69;;;21.18;100.00
62791;BME280;48830;53.426;10.300;2022-08-26T03:40:33;101454.59;;;21.17;100.00
62791;BME280;48830;53.426;10.300;2022-08-26T03:42:59;101455.53;;;21.13;100.00
62791;BME280;48830;53.426;10.300;2022-08-26T03:45:25;101452.06;;;21.13;100.00
62791;BME280;48830;53.426;10.300;2022-08-26T03:47:51;101452.94;;;21.12;100.00
62791;BME280;48830;53.426;10.300;2022-08-26T03:50:18;101453.84;;;21.11;100.00
62791;BME280;48830;53.426;10.300;2022-08-26T03:52:44;101459.97;;;21.08;100.00
62791;BME280;48830;53.426;10.300;2022-08-26T03:55:12;101453.03;;;21.07;100.00
62791;BME280;48830;53.426;10.300;2022-08-26T03:57:38;101458.31;;;21.04;100.00
62791;BME280;48830;53.426;10.300;2022-08-26T04:00:11;101461.81;;;21.03;100.00
62791;BME280;48830;53.426;10.300;2022-08-26T04:02:39;101467.03;;;21.03;100.00
62791;BME280;48830;53.426;10.300;2022-08-26T04:05:05;101462.75;;;20.97;100.00
62791;BME280;48830;53.426;10.300;2022-08-26T04:07:30;101456.66;;;21.00;100.00
62791;BME280;48830;53.426;10.300;2022-08-26T04:09:56;101454.03;;;21.00;100.00
62791;BME280;48830;53.426;10.300;2022-08-26T04:12:23;101454.03;;;21.00;100.00
62791;BME280;48830;53.426;10.300;2022-08-26T04:14:50;101447.09;;;20.99;100.00
62791;BME280;48830;53.426;10.300;2022-08-26T04:17:17;101445.34;;;20.98;100.00
62791;BME280;48830;53.426;10.300;2022-08-26T04:19:43;101447.13;;;20.96;100.00
62791;BME280;48830;53.426;10.300;2022-08-26T04:22:08;101445.34;;;20.98;100.00
62791;BME280;48830;53.426;10.300;2022-08-26T04:24:34;101451.44;;;20.97;100.00
62791;BME280;48830;53.426;10.300;2022-08-26T04:27:00;101448.81;;;21.00;100.00
62791;BME280;48830;53.426;10.300;2022-08-26T04:29:29;101444.47;;;20.99;100.00
62791;BME280;48830;53.426;10.300;2022-08-26T04:31:56;101440.97;;;21.00;100.00
62791;BME280;48830;53.426;10.300;2022-08-26T04:34:22;101437.44;;;21.01;100.00
62791;BME280;48830;53.426;10.300;2022-08-26T04:36:48;101434.00;;;20.97;100.00
62791;BME280;48830;53.426;10.300;2022-08-26T04:39:14;101435.72;;;21.00;100.00
62791;BME280;48830;53.426;10.300;2022-08-26T04:41:45;101437.44;;;21.01;100.00
62791;BME280;48830;53.426;10.300;2022-08-26T04:44:12;101443.53;;;21.02;100.00
62791;BME280;48830;53.426;10.300;2022-08-26T04:46:38;101433.94;;;21.02;100.00
62791;BME280;48830;53.426;10.300;2022-08-26T04:49:04;101440.03;;;21.03;100.00
62791;BME280;48830;53.426;10.300;2022-08-26T04:51:34;101438.22;;;21.06;100.00
62791;BME280;48830;53.426;10.300;2022-08-26T04:54:00;101444.28;;;21.08;100.00
62791;BME280;48830;53.426;10.300;2022-08-26T04:56:30;101437.28;;;21.10;100.00
62791;BME280;48830;53.426;10.300;2022-08-26T04:58:58;101442.53;;;21.09;100.00
62791;BME280;48830;53.426;10.300;2022-08-26T05:01:23;101444.25;;;21.11;100.00
62791;BME280;48830;53.426;10.300;2022-08-26T05:03:49;101452.88;;;21.16;100.00
62791;BME280;48830;53.426;10.300;2022-08-26T05:06:15;101452.91;;;21.13;100.00
62791;BME280;48830;53.426;10.300;2022-08-26T05:08:41;101452.88;;;21.16;100.00
62791;BME280;48830;53.426;10.300;2022-08-26T05:11:08;101457.09;;;21.23;100.00
62791;BME280;48830;53.426;10.300;2022-08-26T05:13:34;101449.25;;;21.23;100.00
62791;BME280;48830;53.426;10.300;2022-08-26T05:16:06;101454.38;;;21.30;100.00
62791;BME280;48830;53.426;10.300;2022-08-26T05:18:32;101449.91;;;21.36;100.00
62791;BME280;48830;53.426;10.300;2022-08-26T05:20:59;101458.59;;;21.38;100.00
62791;BME280;48830;53.426;10.300;2022-08-26T05:23:25;101459.34;;;21.45;100.00
62791;BME280;48830;53.426;10.300;2022-08-26T05:25:52;101461.84;;;21.51;100.00
62791;BME280;48830;53.426;10.300;2022-08-26T05:28:19;101464.28;;;21.60;100.00
62791;BME280;48830;53.426;10.300;2022-08-26T05:30:47;101457.19;;;21.65;100.00
62791;BME280;48830;53.426;10.300;2022-08-26T05:33:13;101456.19;;;21.72;100.00
62791;BME280;48830;53.426;10.300;2022-08-26T05:35:39;101452.69;;;21.72;100.00
62791;BME280;48830;53.426;10.300;2022-08-26T05:38:07;101445.06;;;21.61;100.00
62791;BME280;48830;53.426;10.300;2022-08-26T05:40:36;101451.03;;;21.68;100.00
62791;BME280;48830;53.426;10.300;2022-08-26T05:43:02;101457.75;;;21.81;100.00
62791;BME280;48830;53.426;10.300;2022-08-26T05:45:28;101461.16;;;21.86;100.00
62791;BME280;48830;53.426;10.300;2022-08-26T05:47:56;101452.28;;;21.92;100.00
62791;BME280;48830;53.426;10.300;2022-08-26T05:50:21;101456.53;;;21.97;100.00
62791;BME280;48830;53.426;10.300;2022-08-26T05:52:50;101457.16;;;22.10;99.05
62791;BME280;48830;53.426;10.300;2022-08-26T05:55:16;101459.78;;;22.12;98.62
62791;BME280;48830;53.426;10.300;2022-08-26T05:57:42;101464.03;;;22.16;98.46
62791;BME280;48830;53.426;10.300;2022-08-26T06:00:09;101459.72;;;22.13;98.25
62791;BME280;48830;53.426;10.300;2022-08-26T06:02:37;101464.00;;;22.17;98.44
62791;BME280;48830;53.426;10.300;2022-08-26T06:05:04;101470.91;;;22.20;98.27
62791;BME280;48830;53.426;10.300;2022-08-26T06:07:30;101466.41;;;22.26;97.64
62791;BME280;48830;53.426;10.300;2022-08-26T06:10:14;101468.09;;;22.29;97.48
62791;BME280;48830;53.426;10.300;2022-08-26T06:12:40;101465.06;;;22.47;96.57
62791;BME280;48830;53.426;10.300;2022-08-26T06:15:06;101468.13;;;22.65;95.95
62791;BME280;48830;53.426;10.300;2022-08-26T06:17:31;101459.19;;;22.73;95.23
62791;BME280;48830;53.426;10.300;2022-08-26T06:19:57;101461.59;;;22.83;94.24
62791;BME280;48830;53.426;10.300;2022-08-26T06:22:23;101459.78;;;22.85;93.77
62791;BME280;48830;53.426;10.300;2022-08-26T06:25:08;101459.44;;;23.00;93.26
62791;BME280;48830;53.426;10.300;2022-08-26T06:27:52;101459.44;;;23.00;92.87
62791;BME280;48830;53.426;10.300;2022-08-26T06:30:18;101456.59;;;23.09;92.21
62791;BME280;48830;53.426;10.300;2022-08-26T06:32:43;101458.88;;;23.21;91.88
62791;BME280;48830;53.426;10.300;2022-08-26T06:35:10;101469.22;;;23.27;91.70
62791;BME280;48830;53.426;10.300;2022-08-26T06:37:36;101471.47;;;23.41;90.55
62791;BME280;48830;53.426;10.300;2022-08-26T06:40:02;101474.06;;;23.43;89.82
62791;BME280;48830;53.426;10.300;2022-08-26T06:42:28;101480.59;;;23.59;89.74
62791;BME280;48830;53.426;10.300;2022-08-26T06:44:57;101464.63;;;23.68;88.64
62791;BME280;48830;53.426;10.300;2022-08-26T06:47:22;101463.13;;;23.58;88.73
62791;BME280;48830;53.426;10.300;2022-08-26T06:49:48;101459.09;;;23.77;88.67
62791;BME280;48830;53.426;10.300;2022-08-26T06:52:13;101458.78;;;23.90;87.94
62791;BME280;48830;53.426;10.300;2022-08-26T06:54:38;101460.28;;;23.97;87.00
62791;BME280;48830;53.426;10.300;2022-08-26T06:57:08;101469.75;;;24.02;87.02
62791;BME280;48830;53.426;10.300;2022-08-26T06:59:34;101462.81;;;24.29;87.18
62791;BME280;48830;53.426;10.300;2022-08-26T07:01:59;101461.19;;;24.53;86.23
62791;BME280;48830;53.426;10.300;2022-08-26T07:04:25;101464.44;;;24.61;85.44
62791;BME280;48830;53.426;10.300;2022-08-26T07:06:52;101474.47;;;24.77;84.83
62791;BME280;48830;53.426;10.300;2022-08-26T07:09:18;101473.13;;;24.92;83.37
62791;BME280;48830;53.426;10.300;2022-08-26T07:11:43;101480.94;;;24.93;83.54
62791;BME280;48830;53.426;10.300;2022-08-26T07:14:09;101472.50;;;25.10;83.25
62791;BME280;48830;53.426;10.300;2022-08-26T07:16:35;101467.41;;;25.30;82.19
62791;BME280;48830;53.426;10.300;2022-08-26T07:19:01;101470.06;;;25.30;81.27
62791;BME280;48830;53.426;10.300;2022-08-26T07:21:27;101470.53;;;25.42;81.19
62791;BME280;48830;53.426;10.300;2022-08-26T07:23:53;101465.03;;;25.48;80.05
62791;BME280;48830;53.426;10.300;2022-08-26T07:26:25;101476.25;;;25.53;79.52
62791;BME280;48830;53.426;10.300;2022-08-26T07:28:52;101474.00;;;25.67;79.89
62791;BME280;48830;53.426;10.300;2022-08-26T07:31:19;101468.16;;;25.82;78.48
62791;BME280;48830;53.426;10.300;2022-08-26T07:33:45;101466.69;;;25.99;78.15
62791;BME280;48830;53.426;10.300;2022-08-26T07:36:12;101468.28;;;26.03;77.78
62791;BME280;48830;53.426;10.300;2022-08-26T07:38:40;101464.63;;;26.29;77.67
62791;BME280;48830;53.426;10.300;2022-08-26T07:41:06;101461.50;;;26.41;77.62
62791;BME280;48830;53.426;10.300;2022-08-26T07:43:34;101458.38;;;26.55;76.73
62791;BME280;48830;53.426;10.300;2022-08-26T07:46:00;101466.56;;;26.69;75.74
62791;BME280;48830;53.426;10.300;2022-08-26T07:48:26;101465.41;;;26.76;75.70
62791;BME280;48830;53.426;10.300;2022-08-26T07:50:51;101455.00;;;26.93;74.62
62791;BME280;48830;53.426;10.300;2022-08-26T07:53:19;101454.91;;;26.95;74.08
62791;BME280;48830;53.426;10.300;2022-08-26T07:55:45;101453.75;;;27.23;74.24
62791;BME280;48830;53.426;10.300;2022-08-26T07:58:11;101456.81;;;27.34;73.47
62791;BME280;48830;53.426;10.300;2022-08-26T08:00:36;101465.81;;;27.48;72.23
62791;BME280;48830;53.426;10.300;2022-08-26T08:03:03;101465.41;;;27.58;72.43
62791;BME280;48830;53.426;10.300;2022-08-26T08:05:30;101468.91;;;27.58;72.08
62791;BME280;48830;53.426;10.300;2022-08-26T08:08:02;101464.59;;;27.76;70.97
62791;BME280;48830;53.426;10.300;2022-08-26T08:10:28;101463.88;;;27.91;71.13
62791;BME280;48830;53.426;10.300;2022-08-26T08:12:55;101454.81;;;28.16;71.23
62791;BME280;48830;53.426;10.300;2022-08-26T08:15:23;101458.97;;;28.21;70.27
62791;BME280;48830;53.426;10.300;2022-08-26T08:17:51;101447.78;;;28.53;69.33
62791;BME280;48830;53.426;10.300;2022-08-26T08:20:16;101451.50;;;28.48;67.33
62791;BME280;48830;53.426;10.300;2022-08-26T08:22:42;101456.19;;;28.61;66.85
62791;BME280;48830;53.426;10.300;2022-08-26T08:25:08;101446.97;;;28.33;67.27
62791;BME280;48830;53.426;10.300;2022-08-26T08:27:35;101449.94;;;28.44;67.30
62791;BME280;48830;53.426;10.300;2022-08-26T08:30:01;101450.75;;;28.64;67.18
62791;BME280;48830;53.426;10.300;2022-08-26T08:32:27;101453.72;;;28.75;67.10
62791;BME280;48830;53.426;10.300;2022-08-26T08:34:54;101452.72;;;28.95;66.39
62791;BME280;48830;53.426;10.300;2022-08-26T08:37:20;101462.16;;;29.18;65.49
62791;BME280;48830;53.426;10.300;2022-08-26T08:39:46;101461.22;;;29.19;65.94
62791;BME280;48830;53.426;10.300;2022-08-26T08:44:54;101471.97;;;29.33;64.79
62791;BME280;48830;53.426;10.300;2022-08-26T08:47:40;101466.34;;;29.39;64.74
62791;BME280;48830;53.426;10.300;2022-08-26T08:50:19;101467.56;;;29.49;64.46
62791;BME280;48830;53.426;10.300;2022-08-26T08:52:53;101466.09;;;29.77;64.42
62791;BME280;48830;53.426;10.300;2022-08-26T08:55:21;101462.44;;;29.95;62.94
62791;BME280;48830;53.426;10.300;2022-08-26T08:58:02;101465.22;;;30.25;62.22
62791;BME280;48830;53.426;10.300;2022-08-26T09:00:43;101467.34;;;30.19;61.88
62791;BME280;48830;53.426;10.300;2022-08-26T09:03:41;101467.13;;;30.53;62.49
62791;BME280;48830;53.426;10.300;2022-08-26T09:06:05;101462.91;;;30.81;60.93
62791;BME280;48830;53.426;10.300;2022-08-26T09:08:42;101453.66;;;31.02;59.87
62791;BME280;48830;53.426;10.300;2022-08-26T09:11:08;101460.69;;;31.03;60.08
62791;BME280;48830;53.426;10.300;2022-08-26T09:13:34;101458.47;;;31.26;58.81
62791;BME280;48830;53.426;10.300;2022-08-26T09:16:14;101460.63;;;30.75;59.60
62791;BME280;48830;53.426;10.300;2022-08-26T09:19:16;101456.63;;;31.12;58.41
62791;BME280;48830;53.426;10.300;2022-08-26T09:21:44;101455.25;;;31.35;57.74
62791;BME280;48830;53.426;10.300;2022-08-26T09:24:10;101454.50;;;31.61;57.47
62791;BME280;48830;53.426;10.300;2022-08-26T09:29:06;101443.06;;;32.02;55.81
62791;BME280;48830;53.426;10.300;2022-08-26T09:31:37;101445.53;;;31.91;55.94
62791;BME280;48830;53.426;10.300;2022-08-26T09:36:53;101436.56;;;32.21;54.90
62791;BME280;48830;53.426;10.300;2022-08-26T09:39:34;101437.97;;;31.85;54.88
62791;BME280;48830;53.426;10.300;2022-08-26T09:47:24;101430.13;;;32.64;54.44
62791;BME280;48830;53.426;10.300;2022-08-26T09:50:04;101417.28;;;32.84;54.05
62791;BME280;48830;53.426;10.300;2022-08-26T09:52:33;101422.94;;;33.17;52.85
62791;BME280;48830;53.426;10.300;2022-08-26T09:57:33;101425.75;;;33.78;52.03
62791;BME280;48830;53.426;10.300;2022-08-26T10:00:00;101423.00;;;33.80;52.15
62791;BME280;48830;53.426;10.300;2022-08-26T10:02:34;101419.38;;;34.17;51.23
62791;BME280;48830;53.426;10.300;2022-08-26T10:05:04;101423.94;;;34.15;50.85
62791;BME280;48830;53.426;10.300;2022-08-26T10:07:45;101418.78;;;34.49;50.00
62791;BME280;48830;53.426;10.300;2022-08-26T10:10:32;101416.34;;;34.46;49.49
62791;BME280;48830;53.426;10.300;2022-08-26T10:13:09;101414.69;;;35.03;48.88
62791;BME280;48830;53.426;10.300;2022-08-26T10:16:00;101413.34;;;33.90;49.55
62791;BME280;48830;53.426;10.300;2022-08-26T10:18:34;101410.16;;;33.98;49.63
62791;BME280;48830;53.426;10.300;2022-08-26T10:21:17;101408.00;;;33.90;50.39
62791;BME280;48830;53.426;10.300;2022-08-26T10:23:49;101401.91;;;34.49;48.78
62791;BME280;48830;53.426;10.300;2022-08-26T10:29:22;101390.16;;;34.27;48.56
62791;BME280;48830;53.426;10.300;2022-08-26T10:31:59;101378.44;;;34.76;48.28
62791;BME280;48830;53.426;10.300;2022-08-26T10:34:26;101385.22;;;35.49;46.98
62791;BME280;48830;53.426;10.300;2022-08-26T10:37:13;101386.78;;;35.63;46.82
62791;BME280;48830;53.426;10.300;2022-08-26T10:39:59;101376.19;;;35.50;47.21
62791;BME280;48830;53.426;10.300;2022-08-26T10:42:34;101377.75;;;34.96;47.18
62791;BME280;48830;53.426;10.300;2022-08-26T10:45:22;101377.75;;;35.19;46.81
62791;BME280;48830;53.426;10.300;2022-08-26T10:50:30;101377.13;;;35.71;45.03
62791;BME280;48830;53.426;10.300;2022-08-26T10:53:04;101372.94;;;35.58;45.13
62791;BME280;48830;53.426;10.300;2022-08-26T10:55:39;101361.00;;;36.05;45.39
62791;BME280;48830;53.426;10.300;2022-08-26T11:01:39;101350.34;;;36.89;43.75
62791;BME280;48830;53.426;10.300;2022-08-26T11:06:44;101332.69;;;37.17;43.14
62791;BME280;48830;53.426;10.300;2022-08-26T11:09:12;101335.19;;;37.39;42.48
62791;BME280;48830;53.426;10.300;2022-08-26T11:11:57;101330.25;;;37.04;41.72
62791;BME280;48830;53.426;10.300;2022-08-26T11:16:48;101328.41;;;37.45;42.09
62791;BME280;48830;53.426;10.300;2022-08-26T11:22:06;101318.97;;;37.60;41.39
62791;BME280;48830;53.426;10.300;2022-08-26T11:40:34;101270.44;;;36.73;42.13
62791;BME280;48830;53.426;10.300;2022-08-26T11:43:16;101262.94;;;37.07;42.03
62791;BME280;48830;53.426;10.300;2022-08-26T11:45:56;101260.69;;;37.02;41.74
62791;BME280;48830;53.426;10.300;2022-08-26T11:50:57;101250.34;;;37.38;40.11
62791;BME280;48830;53.426;10.300;2022-08-26T11:53:23;101245.22;;;37.25;40.63
62791;BME280;48830;53.426;10.300;2022-08-26T11:55:51;101246.47;;;36.71;42.95
62791;BME280;48830;53.426;10.300;2022-08-26T11:58:20;101242.25;;;37.19;41.87
62791;BME280;48830;53.426;10.300;2022-08-26T12:03:47;101230.47;;;37.41;40.75
62791;BME280;48830;53.426;10.300;2022-08-26T12:06:13;101234.97;;;37.69;41.33
62791;BME280;48830;53.426;10.300;2022-08-26T12:08:42;101234.56;;;37.64;40.50
62791;BME280;48830;53.426;10.300;2022-08-26T12:11:33;101243.56;;;37.44;41.22
62791;BME280;48830;53.426;10.300;2022-08-26T12:16:26;101246.81;;;36.88;40.49
62791;BME280;48830;53.426;10.300;2022-08-26T12:18:52;101250.13;;;36.70;40.97
62791;BME280;48830;53.426;10.300;2022-08-26T12:21:22;101249.72;;;36.23;41.30
62791;BME280;48830;53.426;10.300;2022-08-26T12:23:51;101250.03;;;36.30;41.64
62791;BME280;48830;53.426;10.300;2022-08-26T12:26:26;101243.16;;;36.16;40.76
62791;BME280;48830;53.426;10.300;2022-08-26T12:28:58;101244.69;;;35.77;41.34
62791;BME280;48830;53.426;10.300;2022-08-26T12:31:37;101240.13;;;35.89;41.76
62791;BME280;48830;53.426;10.300;2022-08-26T12:34:09;101243.81;;;35.01;42.44
62791;BME280;48830;53.426;10.300;2022-08-26T12:36:54;101234.81;;;34.57;44.29
62791;BME280;48830;53.426;10.300;2022-08-26T12:39:29;101228.34;;;33.91;44.71
62791;BME280;48830;53.426;10.300;2022-08-26T12:41:57;101221.03;;;33.82;45.14
62791;BME280;48830;53.426;10.300;2022-08-26T12:45:03;101225.03;;;34.22;46.14
62791;BME280;48830;53.426;10.300;2022-08-26T12:47:34;101218.28;;;34.30;45.58
62791;BME280;48830;53.426;10.300;2022-08-26T12:50:09;101213.41;;;33.88;45.80
62791;BME280;48830;53.426;10.300;2022-08-26T12:52:54;101216.75;;;33.79;45.45
62791;BME280;48830;53.426;10.300;2022-08-26T12:55:33;101214.72;;;33.83;45.58
62791;BME280;48830;53.426;10.300;2022-08-26T13:00:44;101210.03;;;33.86;45.36
62791;BME280;48830;53.426;10.300;2022-08-26T13:08:53;101199.97;;;33.55;47.11
62791;BME280;48830;53.426;10.300;2022-08-26T13:11:23;101191.63;;;33.59;46.61
62791;BME280;48830;53.426;10.300;2022-08-26T13:13:53;101192.59;;;33.58;47.24
62791;BME280;48830;53.426;10.300;2022-08-26T13:16:20;101188.63;;;33.64;46.66
62791;BME280;48830;53.426;10.300;2022-08-26T13:18:58;101187.19;;;33.47;47.31
62791;BME280;48830;53.426;10.300;2022-08-26T13:21:36;101186.72;;;33.29;47.58
62791;BME280;48830;53.426;10.300;2022-08-26T13:24:09;101176.34;;;33.37;48.42
62791;BME280;48830;53.426;10.300;2022-08-26T13:26:37;101177.22;;;33.38;46.81
62791;BME280;48830;53.426;10.300;2022-08-26T13:29:04;101173.28;;;33.07;47.76
62791;BME280;48830;53.426;10.300;2022-08-26T13:31:31;101169.31;;;33.12;47.90
62791;BME280;48830;53.426;10.300;2022-08-26T13:33:57;101166.09;;;32.96;48.49
62791;BME280;48830;53.426;10.300;2022-08-26T13:36:23;101171.97;;;32.76;49.08
62791;BME280;48830;53.426;10.300;2022-08-26T13:38:48;101164.72;;;32.78;48.44
62791;BME280;48830;53.426;10.300;2022-08-26T13:41:14;101163.06;;;32.88;48.88
62791;BME280;48830;53.426;10.300;2022-08-26T13:43:40;101155.88;;;33.38;48.64
62791;BME280;48830;53.426;10.300;2022-08-26T13:46:05;101159.19;;;33.77;48.03
62791;BME280;48830;53.426;10.300;2022-08-26T13:48:31;101156.91;;;33.83;47.00
62791;BME280;48830;53.426;10.300;2022-08-26T13:50:58;101160.63;;;33.69;46.57
62791;BME280;48830;53.426;10.300;2022-08-26T13:53:24;101161.69;;;33.56;46.22
62791;BME280;48830;53.426;10.300;2022-08-26T13:55:49;101167.03;;;34.02;46.82
62791;BME280;48830;53.426;10.300;2022-08-26T13:58:15;101165.69;;;33.61;45.79
62791;BME280;48830;53.426;10.300;2022-08-26T14:00:41;101159.53;;;33.37;45.96